Time;durP1;ratioP1;P1;durP2;ratioP2;P2;SDS_P1;SDS_P2;PMS_P1;PMS_P2;Temp;Humidity;BMP_temperature;BMP_pressure;BME280_temperature;BME280_humidity;BME280_pressure;Samples;Min_cycle;Max_cycle;Signal;HPM_P1;HPM_P2
2022/02/28 00:00:31;;;;;;;1.38;0.52;;;26.40;75.00;;;;;;5127675;23;20187;-67
2022/02/28 00:02:53;;;;;;;;;;;26.40;74.90;;;;;;5135475;23;20023;-66
2022/02/28 00:05:16;;;;;;;1.00;0.60;;;26.50;74.90;;;;;;5126633;23;19915;-63
2022/02/28 00:07:39;;;;;;;0.47;0.38;;;26.50;75.40;;;;;;5094463;23;20051;-63
2022/02/28 00:10:01;;;;;;;2.13;0.60;;;26.50;74.80;;;;;;5134494;23;20272;-65
2022/02/28 00:12:24;;;;;;;0.50;0.40;;;26.50;74.70;;;;;;5132256;23;20015;-66
2022/02/28 00:14:46;;;;;;;1.27;0.40;;;26.50;74.60;;;;;;5131036;23;20028;-67
2022/02/28 00:17:09;;;;;;;0.85;0.40;;;26.60;74.70;;;;;;5134904;23;20012;-65
2022/02/28 00:19:31;;;;;;;1.08;0.52;;;26.60;74.70;;;;;;5132865;23;20012;-68
2022/02/28 00:21:54;;;;;;;1.90;0.40;;;26.60;74.70;;;;;;5130198;23;20078;-65
2022/02/28 00:24:16;;;;;;;1.33;0.60;;;26.60;74.60;;;;;;5132073;23;20027;-64
2022/02/28 00:26:39;;;;;;;0.80;0.52;;;26.60;74.60;;;;;;5131199;23;20019;-63
2022/02/28 00:29:01;;;;;;;1.65;0.40;;;26.70;74.50;;;;;;5130713;23;20507;-64
2022/02/28 00:31:24;;;;;;;1.50;0.50;;;26.70;74.50;;;;;;5100638;23;20255;-63
2022/02/28 00:33:46;;;;;;;1.75;0.50;;;26.60;74.50;;;;;;5133474;22;20027;-62
2022/02/28 00:36:09;;;;;;;0.88;0.50;;;26.70;74.60;;;;;;5127337;23;20089;-61
2022/02/28 00:38:32;;;;;;;1.13;0.60;;;26.70;74.50;;;;;;5132743;23;20030;-66
2022/02/28 00:40:55;;;;;;;1.13;0.70;;;26.70;74.60;;;;;;5142466;23;20543;-65
2022/02/28 00:43:18;;;;;;;1.65;0.60;;;26.70;74.70;;;;;;5135046;23;20012;-65
2022/02/28 00:45:41;;;;;;;1.48;0.70;;;26.80;74.70;;;;;;5137673;23;20020;-64
2022/02/28 00:48:03;;;;;;;1.85;1.05;;;26.80;74.60;;;;;;5142188;23;20456;-67
2022/02/28 00:50:26;;;;;;;5.82;1.00;;;26.80;74.50;;;;;;5135169;23;20016;-71
2022/02/28 00:52:48;;;;;;;0.80;0.50;;;26.80;74.40;;;;;;5139812;23;20016;-68
2022/02/28 00:55:12;;;;;;;3.15;0.63;;;26.90;74.50;;;;;;5145532;23;20016;-69
2022/02/28 00:57:35;;;;;;;1.88;0.80;;;26.90;74.50;;;;;;5142576;23;20023;-67
2022/02/28 00:59:57;;;;;;;1.60;0.60;;;26.90;74.40;;;;;;5140933;23;20203;-69
2022/02/28 01:02:20;;;;;;;2.65;0.98;;;26.90;74.40;;;;;;5140882;23;20016;-65
2022/02/28 01:04:43;;;;;;;2.47;0.70;;;26.90;74.40;;;;;;5137668;23;20032;-67
2022/02/28 01:07:06;;;;;;;2.33;0.90;;;26.90;74.40;;;;;;5141197;23;20672;-66
2022/02/28 01:09:28;;;;;;;2.10;0.80;;;27.00;74.40;;;;;;5149749;23;20027;-67
2022/02/28 01:11:51;;;;;;;2.10;0.70;;;27.00;74.40;;;;;;5145543;23;20008;-67
2022/02/28 01:14:13;;;;;;;1.50;0.70;;;27.00;74.50;;;;;;5143170;23;20086;-65
2022/02/28 01:16:36;;;;;;;3.42;1.23;;;27.00;74.30;;;;;;5149728;23;20431;-67
2022/02/28 01:18:59;;;;;;;8.87;3.40;;;27.00;74.40;;;;;;5143633;23;20366;-66
2022/02/28 01:21:21;;;;;;;1726.63;553.17;;;27.10;74.50;;;;;;5145766;23;20275;-67
2022/02/28 01:23:44;;;;;;;1999.90;857.72;;;27.10;74.90;;;;;;5157352;23;20091;-73
2022/02/28 01:26:07;;;;;;;1999.90;999.90;;;27.00;75.60;;;;;;5155535;23;20437;-74
2022/02/28 01:28:29;;;;;;;1999.90;999.90;;;27.00;76.10;;;;;;5119835;23;20092;-73
2022/02/28 01:30:52;;;;;;;1999.90;999.40;;;27.00;76.60;;;;;;5150309;23;20016;-71
2022/02/28 03:46:35;;;;;;;5.05;1.80;;;24.10;79.80;;;;;;4762915;23;20553;-63
2022/02/28 03:48:58;;;;;;;4.72;1.70;;;24.20;79.40;;;;;;5102909;23;20477;-63
2022/02/28 03:51:21;;;;;;;3.25;1.58;;;24.30;79.20;;;;;;5110002;23;20444;-63
2022/02/28 03:53:43;;;;;;;3.67;1.70;;;24.30;78.50;;;;;;5107281;23;20047;-63
2022/02/28 03:56:06;;;;;;;4.60;1.75;;;24.40;78.70;;;;;;5111959;23;20511;-63
2022/02/28 03:58:30;;;;;;;6.22;1.95;;;24.40;78.90;;;;;;5111792;23;20472;-63
2022/02/28 04:00:53;;;;;;;5.63;2.10;;;24.40;78.90;;;;;;5106474;23;20008;-63
2022/02/28 04:03:15;;;;;;;4.78;1.60;;;24.50;80.20;;;;;;5110402;23;20595;-63
2022/02/28 04:05:38;;;;;;;5.65;1.75;;;24.60;80.10;;;;;;5108916;23;20028;-63
2022/02/28 04:08:00;;;;;;;3.00;1.35;;;24.60;79.80;;;;;;5106612;23;20378;-64
2022/02/28 04:10:22;;;;;;;4.80;2.13;;;24.60;80.20;;;;;;5108166;23;20100;-63
2022/02/28 04:12:45;;;;;;;6.15;1.95;;;24.70;80.00;;;;;;5113011;23;20017;-64
2022/02/28 04:15:08;;;;;;;4.28;1.77;;;24.70;79.50;;;;;;5079650;23;20125;-63
2022/02/28 04:17:30;;;;;;;3.70;1.70;;;24.80;79.40;;;;;;5110399;23;20501;-63
2022/02/28 04:19:53;;;;;;;4.22;1.50;;;24.80;79.20;;;;;;5114816;23;20420;-63
2022/02/28 04:22:15;;;;;;;3.38;1.60;;;24.90;79.50;;;;;;5107493;23;20017;-64
2022/02/28 04:24:38;;;;;;;4.85;2.05;;;24.90;76.50;;;;;;5107183;23;20198;-64
2022/02/28 04:27:00;;;;;;;3.22;1.52;;;24.80;73.70;;;;;;5114225;23;20096;-64
2022/02/28 04:29:23;;;;;;;2.90;1.30;;;24.70;72.70;;;;;;5109818;23;20044;-64
2022/02/28 04:31:45;;;;;;;2.90;1.33;;;24.50;71.20;;;;;;5107912;23;20012;-64
2022/02/28 04:34:08;;;;;;;4.22;1.67;;;24.40;71.00;;;;;;5090609;23;20027;-64
2022/02/28 04:36:30;;;;;;;5.13;1.50;;;24.20;71.40;;;;;;5077006;23;20048;-64
2022/02/28 04:38:53;;;;;;;3.60;1.35;;;24.10;71.50;;;;;;5075342;23;20056;-65
2022/02/28 04:41:15;;;;;;;1.83;1.33;;;24.00;70.60;;;;;;5087848;23;20024;-64
2022/02/28 04:43:38;;;;;;;2.88;1.30;;;23.90;72.10;;;;;;5087190;23;20518;-64
2022/02/28 04:46:00;;;;;;;4.43;1.50;;;23.80;72.70;;;;;;5084741;23;20029;-62
2022/02/28 04:48:23;;;;;;;3.85;1.52;;;23.70;72.50;;;;;;5089084;23;20028;-64
2022/02/28 04:50:45;;;;;;;4.53;1.73;;;23.60;70.60;;;;;;5088424;23;20021;-64
2022/02/28 04:53:07;;;;;;;3.63;1.77;;;23.50;71.60;;;;;;5085039;23;20017;-63
2022/02/28 04:55:30;;;;;;;3.63;1.90;;;23.50;72.80;;;;;;5086969;23;20120;-64
2022/02/28 04:57:52;;;;;;;6.10;1.88;;;23.40;74.10;;;;;;5090863;23;20116;-63
2022/02/28 05:00:15;;;;;;;2.75;1.50;;;23.40;71.80;;;;;;5074194;23;20017;-63
2022/02/28 05:02:38;;;;;;;5.18;1.80;;;23.30;72.40;;;;;;5049967;23;20828;-64
2022/02/28 05:05:03;;;;;;;2.45;1.42;;;23.30;71.50;;;;;;5086508;23;20109;-63
2022/02/28 05:07:25;;;;;;;1.63;1.00;;;23.20;71.90;;;;;;5080905;23;20023;-63
2022/02/28 05:09:47;;;;;;;2.78;1.10;;;23.20;72.90;;;;;;5081734;23;20324;-64
2022/02/28 05:12:10;;;;;;;3.17;1.20;;;23.10;71.30;;;;;;5085361;23;20082;-63
2022/02/28 05:14:32;;;;;;;3.08;1.48;;;23.10;71.50;;;;;;5077165;23;20503;-64
2022/02/28 05:16:55;;;;;;;3.83;1.58;;;23.00;74.40;;;;;;5076994;23;20088;-62
2022/02/28 05:19:17;;;;;;;2.75;1.20;;;22.90;72.50;;;;;;5085083;23;20017;-64
2022/02/28 05:21:40;;;;;;;3.95;1.70;;;22.90;72.50;;;;;;5077981;23;20024;-64
2022/02/28 05:24:03;;;;;;;4.65;1.63;;;22.80;73.90;;;;;;5071024;23;20732;-64
2022/02/28 05:26:25;;;;;;;6.03;2.10;;;22.80;72.60;;;;;;5076752;23;20028;-62
2022/02/28 05:28:47;;;;;;;4.25;2.10;;;22.80;74.60;;;;;;5080765;23;20021;-65
2022/02/28 05:31:10;;;;;;;5.15;2.30;;;22.80;75.20;;;;;;5079216;23;20029;-64
2022/02/28 05:33:32;;;;;;;12.13;2.60;;;22.70;75.00;;;;;;5081602;23;20044;-65
2022/02/28 05:35:55;;;;;;;4.18;2.00;;;22.70;79.70;;;;;;5084039;23;20535;-64
2022/02/28 05:38:17;;;;;;;4.50;1.95;;;22.70;86.00;;;;;;5084247;23;20179;-65
2022/02/28 05:40:40;;;;;;;3.92;1.33;;;22.80;88.50;;;;;;5089434;23;20112;-65
2022/02/28 05:43:02;;;;;;;2.53;1.33;;;22.90;90.10;;;;;;5088304;23;20023;-65
2022/02/28 05:45:25;;;;;;;3.47;1.67;;;23.00;90.60;;;;;;5083743;23;20028;-65
2022/02/28 05:47:47;;;;;;;3.85;1.60;;;23.10;90.60;;;;;;5055498;23;20323;-65
2022/02/28 05:50:13;;;;;;;5.15;1.95;;;23.10;90.70;;;;;;5089576;23;20025;-65
2022/02/28 05:52:36;;;;;;;5.70;2.10;;;23.20;90.40;;;;;;5077784;23;20028;-66
2022/02/28 05:54:58;;;;;;;3.72;1.42;;;23.30;89.70;;;;;;5086642;23;20048;-65
2022/02/28 05:57:21;;;;;;;4.40;1.60;;;23.30;89.30;;;;;;5087212;23;20092;-66
2022/02/28 05:59:43;;;;;;;4.05;1.70;;;23.30;88.90;;;;;;5082244;23;20065;-65
2022/02/28 06:02:06;;;;;;;3.45;1.60;;;23.40;88.60;;;;;;5081193;23;20445;-65
2022/02/28 06:04:28;;;;;;;3.95;1.25;;;23.50;88.50;;;;;;5090568;23;20099;-65
2022/02/28 06:06:51;;;;;;;2.38;1.42;;;23.50;88.30;;;;;;5081939;23;20024;-66
2022/02/28 06:09:13;;;;;;;2.10;1.25;;;23.60;88.40;;;;;;5083156;23;20091;-65
2022/02/28 06:11:36;;;;;;;3.22;1.58;;;23.60;88.30;;;;;;5091089;23;20021;-72
2022/02/28 06:13:58;;;;;;;2.90;1.50;;;23.70;88.50;;;;;;5084628;23;20118;-70
2022/02/28 06:16:21;;;;;;;3.25;1.13;;;23.80;88.10;;;;;;5084386;23;20116;-61
2022/02/28 06:18:43;;;;;;;1.92;0.85;;;23.80;87.90;;;;;;5090779;23;20017;-62
2022/02/28 06:21:06;;;;;;;1.50;0.82;;;23.90;87.30;;;;;;5077685;23;20028;-63
2022/02/28 06:23:28;;;;;;;1.00;0.80;;;23.90;86.70;;;;;;5086101;23;20016;-62
2022/02/28 06:25:51;;;;;;;1.35;1.10;;;24.00;86.40;;;;;;5091576;23;20686;-62
2022/02/28 06:28:13;;;;;;;1.35;0.95;;;24.00;86.00;;;;;;5086960;23;20052;-62
2022/02/28 06:30:36;;;;;;;0.75;0.55;;;24.10;86.00;;;;;;5085584;23;20021;-63
2022/02/28 06:32:58;;;;;;;1.88;0.73;;;24.10;86.20;;;;;;5080421;23;20013;-66
2022/02/28 06:35:21;;;;;;;1.02;0.63;;;24.20;86.10;;;;;;5069384;23;20372;-62
2022/02/28 06:37:44;;;;;;;1.02;0.45;;;24.30;85.80;;;;;;5067416;23;20075;-64
2022/02/28 06:40:07;;;;;;;0.30;0.30;;;24.40;85.30;;;;;;5080852;23;20013;-63
2022/02/28 06:42:29;;;;;;;0.47;0.40;;;24.40;84.80;;;;;;5085781;23;20035;-61
2022/02/28 06:44:52;;;;;;;0.68;0.30;;;24.50;84.40;;;;;;5085972;23;20039;-62
2022/02/28 06:47:14;;;;;;;0.50;0.40;;;24.60;84.10;;;;;;5077738;23;20049;-60
2022/02/28 06:49:37;;;;;;;2.33;0.63;;;24.70;83.80;;;;;;5087938;23;20047;-68
2022/02/28 06:51:59;;;;;;;3.38;0.70;;;24.80;83.70;;;;;;5080082;23;20024;-70
2022/02/28 06:54:22;;;;;;;3.00;0.60;;;24.80;82.80;;;;;;5081046;23;20840;-71
2022/02/28 06:56:44;;;;;;;1.67;0.40;;;24.80;83.10;;;;;;5055842;23;20490;-67
2022/02/28 06:59:07;;;;;;;1.92;0.52;;;24.90;83.00;;;;;;5077254;23;20047;-70
2022/02/28 07:01:32;;;;;;;5.82;0.80;;;25.00;83.50;;;;;;5075927;23;20017;-70
2022/02/28 07:03:55;;;;;;;0.90;0.45;;;25.10;82.90;;;;;;5083978;23;20031;-67
2022/02/28 07:06:22;;;;;;;0.63;0.47;;;25.10;82.80;;;;;;5072329;23;20155;-68
2022/02/28 07:08:44;;;;;;;1.27;0.43;;;25.10;82.70;;;;;;5093485;23;20885;-69
2022/02/28 07:11:08;;;;;;;0.47;0.20;;;25.20;82.70;;;;;;5093323;23;20048;-72
2022/02/28 07:13:32;;;;;;;0.65;0.20;;;25.20;82.60;;;;;;5091157;23;20084;-70
2022/02/28 07:15:55;;;;;;;0.95;0.28;;;25.30;82.50;;;;;;5095175;23;20028;-69
2022/02/28 07:18:18;;;;;;;0.50;0.35;;;25.40;82.30;;;;;;5095159;23;20017;-69
2022/02/28 07:20:41;;;;;;;0.52;0.35;;;25.40;82.10;;;;;;5088163;23;20131;-70
2022/02/28 07:23:05;;;;;;;1.13;0.33;;;25.50;82.00;;;;;;5093943;23;20220;-69
2022/02/28 07:25:28;;;;;;;0.20;0.20;;;25.50;81.70;;;;;;5095356;23;20024;-71
2022/02/28 07:27:50;;;;;;;0.93;0.20;;;25.50;81.50;;;;;;5091959;23;20017;-67
2022/02/28 07:30:13;;;;;;;0.20;0.20;;;25.60;81.60;;;;;;5097153;23;20116;-72
2022/02/28 07:32:35;;;;;;;7.47;1.10;;;25.60;81.40;;;;;;5070886;23;20013;-72
2022/02/28 07:34:58;;;;;;;2.33;0.75;;;25.60;80.50;;;;;;5060860;23;20009;-71
2022/02/28 07:37:20;;;;;;;2.95;0.90;;;25.70;79.80;;;;;;5093366;23;20024;-71
2022/02/28 07:39:43;;;;;;;1.92;1.13;;;25.70;79.20;;;;;;5093793;23;20013;-69
2022/02/28 07:42:05;;;;;;;3.70;1.10;;;25.70;79.20;;;;;;5092594;23;20023;-72
2022/02/28 07:44:29;;;;;;;2.25;1.15;;;25.70;79.10;;;;;;5096593;23;20974;-65
2022/02/28 07:46:51;;;;;;;2.85;1.05;;;25.70;78.90;;;;;;5098139;23;20032;-72
2022/02/28 07:49:14;;;;;;;2.03;1.00;;;25.70;79.00;;;;;;5089207;23;20105;-68
2022/02/28 07:51:36;;;;;;;3.03;1.27;;;25.70;78.80;;;;;;5095684;23;20966;-76
2022/02/28 07:53:58;;;;;;;4.72;1.50;;;25.70;78.70;;;;;;5095525;23;20017;-63
2022/02/28 07:56:21;;;;;;;1.17;0.88;;;25.70;78.70;;;;;;5080876;23;20024;-64
2022/02/28 07:58:43;;;;;;;2.05;1.00;;;25.80;78.60;;;;;;5089082;23;20012;-63
2022/02/28 08:01:06;;;;;;;2.92;1.15;;;25.80;78.40;;;;;;5091059;23;20568;-64
2022/02/28 08:03:28;;;;;;;6.50;1.75;;;25.80;78.50;;;;;;5087159;23;20757;-64
2022/02/28 08:05:51;;;;;;;16.50;2.40;;;25.80;78.60;;;;;;5091123;23;20282;-65
2022/02/28 08:08:13;;;;;;;9.32;2.03;;;25.80;79.00;;;;;;5097897;23;20016;-60
2022/02/28 08:10:36;;;;;;;9.35;1.98;;;25.80;79.70;;;;;;5090240;23;20805;-66
2022/02/28 08:12:58;;;;;;;12.40;2.20;;;25.90;80.50;;;;;;5090494;23;20084;-70
2022/02/28 08:15:21;;;;;;;6.60;1.90;;;25.90;82.80;;;;;;5093550;23;20491;-72
2022/02/28 08:17:44;;;;;;;6.85;1.23;;;26.00;84.10;;;;;;5092805;23;20531;-70
2022/02/28 08:20:07;;;;;;;;;;;26.00;82.50;;;;;;5089374;23;20046;-71
2022/02/28 08:22:29;;;;;;;5.07;1.38;;;26.00;84.90;;;;;;5091873;23;19946;-68
2022/02/28 08:24:52;;;;;;;3.35;1.10;;;26.00;82.20;;;;;;5089269;23;20035;-66
2022/02/28 08:27:14;;;;;;;1.95;1.02;;;25.90;79.80;;;;;;5085188;23;20123;-68
2022/02/28 08:29:37;;;;;;;1.52;0.77;;;25.80;79.40;;;;;;5088096;23;20017;-69
2022/02/28 08:31:59;;;;;;;2.20;1.08;;;25.80;79.50;;;;;;5092613;23;20017;-68
2022/02/28 08:34:22;;;;;;;0.50;0.50;;;25.80;79.60;;;;;;5086920;23;20021;-69
2022/02/28 08:36:44;;;;;;;1.13;0.50;;;25.80;79.50;;;;;;5087968;23;20473;-69
2022/02/28 08:39:07;;;;;;;0.90;0.40;;;25.90;79.50;;;;;;5092160;23;20024;-69
2022/02/28 08:41:30;;;;;;;1.02;0.50;;;25.90;79.40;;;;;;5086002;23;20024;-69
2022/02/28 08:43:52;;;;;;;0.70;0.30;;;25.90;79.30;;;;;;5084680;23;20071;-69
2022/02/28 08:46:14;;;;;;;0.30;0.30;;;25.90;79.10;;;;;;5091081;23;20029;-69
2022/02/28 08:48:37;;;;;;;0.40;0.40;;;25.90;78.90;;;;;;5083894;23;20836;-65
2022/02/28 08:51:00;;;;;;;1.55;0.55;;;25.90;78.80;;;;;;5036594;22;20188;-72
2022/02/28 08:53:22;;;;;;;0.30;0.30;;;26.00;79.50;;;;;;5088188;23;20835;-76
2022/02/28 08:55:45;;;;;;;0.52;0.30;;;26.00;80.00;;;;;;5083957;23;20093;-72
2022/02/28 08:58:07;;;;;;;0.40;0.40;;;26.00;80.20;;;;;;5081899;23;20020;-67
2022/02/28 09:00:30;;;;;;;1.52;0.35;;;26.10;79.90;;;;;;5088834;23;20076;-69
2022/02/28 09:02:52;;;;;;;0.30;0.30;;;26.10;80.40;;;;;;5083291;23;20019;-71
2022/02/28 09:05:15;;;;;;;1.77;0.35;;;26.10;80.20;;;;;;5082371;23;20028;-70
2022/02/28 09:07:37;;;;;;;0.40;0.30;;;26.10;80.10;;;;;;5085320;23;20338;-76
2022/02/28 09:10:00;;;;;;;0.20;0.20;;;26.10;80.10;;;;;;5083395;23;20446;-66
2022/02/28 09:12:23;;;;;;;0.28;0.28;;;26.20;80.00;;;;;;5084037;23;20405;-78
2022/02/28 09:14:45;;;;;;;0.80;0.30;;;26.20;79.90;;;;;;5082849;23;20017;-68
2022/02/28 09:17:08;;;;;;;0.68;0.30;;;26.20;79.90;;;;;;5086968;23;20424;-67
2022/02/28 09:19:30;;;;;;;0.38;0.30;;;26.30;80.00;;;;;;5084652;23;20017;-70
2022/02/28 09:21:53;;;;;;;0.65;0.30;;;26.30;79.90;;;;;;5088688;23;20144;-73
2022/02/28 09:24:16;;;;;;;0.93;0.40;;;26.30;79.80;;;;;;5081933;23;20095;-68
2022/02/28 09:26:38;;;;;;;0.68;0.40;;;26.30;79.70;;;;;;5084764;23;20128;-75
2022/02/28 09:29:01;;;;;;;1.10;0.25;;;26.30;79.40;;;;;;5083752;23;20383;-70
2022/02/28 09:31:23;;;;;;;1.35;0.35;;;26.40;79.40;;;;;;5086677;23;20623;-74
2022/02/28 09:33:46;;;;;;;4.43;0.50;;;26.40;79.20;;;;;;5063332;23;20024;-71
2022/02/28 09:36:08;;;;;;;1.63;0.67;;;26.40;79.20;;;;;;5075094;23;20017;-74
2022/02/28 09:38:31;;;;;;;0.40;0.30;;;26.40;78.90;;;;;;5083473;23;20083;-70
2022/02/28 09:40:54;;;;;;;0.60;0.30;;;26.40;78.60;;;;;;5079888;23;20019;-69
2022/02/28 09:43:18;;;;;;;0.57;0.35;;;26.40;78.50;;;;;;5079594;23;20027;-67
2022/02/28 09:45:40;;;;;;;;;;;26.40;78.10;;;;;;5085988;23;20029;-69
2022/02/28 09:48:04;;;;;;;0.57;0.30;;;26.40;78.70;;;;;;5081101;23;19965;-66
2022/02/28 09:50:27;;;;;;;0.57;0.30;;;26.40;79.10;;;;;;5083204;23;20035;-70
2022/02/28 09:52:49;;;;;;;0.40;0.40;;;26.40;79.20;;;;;;5087446;23;20020;-65
2022/02/28 09:55:14;;;;;;;1.23;0.38;;;26.50;79.10;;;;;;5083053;23;20087;-64
2022/02/28 09:57:37;;;;;;;0.55;0.32;;;26.50;79.00;;;;;;5052706;23;20684;-65
2022/02/28 10:00:00;;;;;;;0.45;0.40;;;26.50;79.00;;;;;;5089450;23;20013;-66
2022/02/28 10:02:23;;;;;;;0.30;0.20;;;26.50;79.00;;;;;;5083153;23;20424;-66
2022/02/28 10:04:46;;;;;;;1.65;0.30;;;26.50;79.00;;;;;;5083738;23;20035;-67
2022/02/28 10:07:20;;;;;;;0.32;0.30;;;26.50;78.80;;;;;;5089083;23;20028;-66
2022/02/28 10:09:42;;;;;;;0.28;0.28;;;26.50;78.80;;;;;;5075682;23;20081;-64
2022/02/28 10:12:06;;;;;;;1.30;0.45;;;26.60;78.80;;;;;;5088937;23;20020;-64
2022/02/28 10:14:32;;;;;;;1.60;0.40;;;26.60;78.70;;;;;;5083351;23;20025;-65
2022/02/28 10:16:58;;;;;;;3.35;0.30;;;26.60;78.80;;;;;;5082607;23;20545;-68
2022/02/28 10:19:35;;;;;;;0.30;0.30;;;26.60;78.70;;;;;;5087442;23;20013;-63
2022/02/28 10:22:01;;;;;;;2.17;0.65;;;26.60;78.50;;;;;;5087365;23;20013;-61
2022/02/28 10:24:38;;;;;;;1.00;0.47;;;26.60;78.40;;;;;;5083838;23;20013;-64
2022/02/28 10:27:02;;;;;;;5.68;0.70;;;26.70;78.30;;;;;;5084742;23;20028;-64
2022/02/28 10:29:27;;;;;;;0.43;0.30;;;26.70;78.20;;;;;;5082095;23;20151;-65
2022/02/28 10:31:49;;;;;;;1.55;0.35;;;26.60;78.10;;;;;;5084707;23;20691;-61
2022/02/28 10:34:23;;;;;;;2.28;0.32;;;26.70;78.50;;;;;;5084516;23;20017;-61
2022/02/28 10:36:56;;;;;;;1.00;0.45;;;26.60;78.10;;;;;;5082977;23;20040;-62
2022/02/28 10:39:33;;;;;;;1.35;0.43;;;26.70;78.00;;;;;;5071539;23;20076;-65
2022/02/28 10:42:02;;;;;;;4.18;1.10;;;26.70;78.10;;;;;;5080728;23;20021;-73
2022/02/28 10:44:25;;;;;;;2.88;1.52;;;26.60;77.60;;;;;;5078803;23;20895;-69
2022/02/28 10:46:48;;;;;;;4.93;1.77;;;26.60;77.80;;;;;;5088025;23;20067;-65
2022/02/28 10:49:15;;;;;;;;;;;26.60;77.50;;;;;;5078775;23;20013;-59
2022/02/28 10:51:50;;;;;;;4.80;1.65;;;26.60;77.90;;;;;;5084140;23;19904;-62
2022/02/28 10:54:21;;;;;;;3.47;1.92;;;26.60;78.40;;;;;;5082203;23;20023;-61
2022/02/28 10:56:49;;;;;;;4.22;2.05;;;26.60;78.40;;;;;;5087842;23;20040;-60
2022/02/28 10:59:12;;;;;;;3.97;2.00;;;26.60;78.50;;;;;;5083493;23;20814;-60
2022/02/28 11:01:41;;;;;;;4.15;1.98;;;26.60;78.50;;;;;;5087628;23;20047;-61
2022/02/28 11:04:05;;;;;;;3.13;1.50;;;26.70;78.60;;;;;;5080534;23;20092;-59
2022/02/28 11:06:27;;;;;;;5.95;1.80;;;26.70;78.60;;;;;;5080995;23;20029;-58
2022/02/28 11:08:51;;;;;;;4.07;1.90;;;26.70;78.60;;;;;;5089580;23;20025;-58
2022/02/28 11:11:15;;;;;;;4.57;1.90;;;26.70;78.30;;;;;;5084220;23;20067;-59
2022/02/28 11:13:38;;;;;;;4.07;1.90;;;26.70;77.90;;;;;;5086586;23;20519;-58
2022/02/28 11:16:01;;;;;;;3.47;1.88;;;26.70;77.90;;;;;;5088958;23;20047;-58
2022/02/28 11:18:23;;;;;;;5.18;2.17;;;26.70;77.90;;;;;;5085602;23;20020;-59
2022/02/28 11:20:47;;;;;;;5.35;2.08;;;26.70;77.80;;;;;;5084900;23;20124;-58
2022/02/28 11:23:09;;;;;;;12.23;2.20;;;26.80;77.80;;;;;;5091269;23;20028;-58
2022/02/28 11:25:32;;;;;;;4.97;1.95;;;26.80;77.80;;;;;;5082530;23;20789;-51
2022/02/28 11:27:57;;;;;;;4.83;1.70;;;26.80;77.70;;;;;;5086702;23;20009;-56
2022/02/28 11:30:23;;;;;;;5.57;2.10;;;26.80;77.60;;;;;;5090258;23;20461;-58
2022/02/28 11:32:57;;;;;;;6.13;2.15;;;26.80;77.50;;;;;;5085776;23;20112;-59
2022/02/28 11:35:38;;;;;;;6.40;2.20;;;26.80;77.30;;;;;;5086608;23;20116;-60
2022/02/28 11:38:02;;;;;;;10.27;2.42;;;26.80;76.60;;;;;;5092192;23;20119;-59
2022/02/28 11:40:32;;;;;;;5.55;2.28;;;26.80;77.00;;;;;;5087079;23;20384;-60
2022/02/28 11:43:14;;;;;;;5.05;1.83;;;26.80;77.20;;;;;;5084020;23;20021;-59
2022/02/28 11:45:37;;;;;;;3.85;1.80;;;26.80;77.30;;;;;;5091010;23;20061;-60
2022/02/28 11:48:26;;;;;;;5.20;2.20;;;26.90;77.30;;;;;;5085974;23;20088;-63
2022/02/28 11:51:01;;;;;;;4.95;1.90;;;26.80;77.10;;;;;;5082635;23;20044;-59
2022/02/28 11:53:43;;;;;;;3.45;2.03;;;26.90;77.10;;;;;;5086388;23;20023;-62
2022/02/28 11:56:18;;;;;;;5.45;1.77;;;26.90;77.10;;;;;;5089028;23;20568;-60
2022/02/28 11:58:48;;;;;;;4.30;2.05;;;26.90;77.20;;;;;;5086670;23;20243;-61
2022/02/28 12:01:11;;;;;;;7.85;1.90;;;26.90;76.80;;;;;;5089029;23;20020;-60
2022/02/28 12:03:36;;;;;;;;;;;26.90;76.90;;;;;;5086736;23;20087;-61
2022/02/28 12:05:58;;;;;;;5.28;1.90;;;26.90;77.00;;;;;;5080728;23;20465;-59
2022/02/28 12:08:35;;;;;;;3.78;2.00;;;26.90;77.00;;;;;;5087764;23;20072;-59
2022/02/28 12:10:58;;;;;;;8.80;2.10;;;26.90;77.00;;;;;;5089890;23;20016;-58
2022/02/28 12:13:34;;;;;;;8.80;2.20;;;27.00;76.90;;;;;;5083434;23;20116;-63
2022/02/28 12:15:57;;;;;;;5.18;1.75;;;26.90;76.40;;;;;;5091030;23;20044;-64
2022/02/28 12:18:20;;;;;;;5.82;1.85;;;27.00;77.10;;;;;;5085321;23;20016;-60
2022/02/28 12:20:45;;;;;;;10.05;2.05;;;26.90;77.00;;;;;;5086582;23;20235;-61
2022/02/28 12:23:09;;;;;;;6.28;1.98;;;26.90;76.90;;;;;;5087243;23;20117;-63
2022/02/28 12:25:47;;;;;;;4.72;1.15;;;26.90;77.00;;;;;;5086420;23;20099;-62
2022/02/28 12:28:32;;;;;;;5.35;1.50;;;26.90;77.10;;;;;;5087483;23;20017;-61
2022/02/28 12:31:00;;;;;;;4.72;1.70;;;26.90;77.00;;;;;;5087663;23;20147;-65
2022/02/28 12:33:36;;;;;;;5.85;1.45;;;26.90;77.20;;;;;;5082151;23;20436;-62
2022/02/28 12:36:17;;;;;;;2.33;0.93;;;26.90;77.20;;;;;;5076096;23;20167;-62
2022/02/28 12:38:56;;;;;;;5.55;1.40;;;26.90;77.20;;;;;;5085606;23;20013;-64
2022/02/28 12:41:29;;;;;;;2.60;1.15;;;26.90;77.30;;;;;;5090952;23;20128;-63
2022/02/28 12:43:53;;;;;;;4.03;1.17;;;26.80;77.20;;;;;;5086307;23;20016;-60
2022/02/28 12:46:19;;;;;;;;;;;26.80;77.20;;;;;;5091330;23;20040;-67
2022/02/28 12:48:45;;;;;;;3.80;1.13;;;26.80;77.20;;;;;;5083083;23;19908;-61
2022/02/28 12:51:10;;;;;;;2.20;0.80;;;26.80;77.20;;;;;;5090741;23;20024;-62
2022/02/28 12:53:36;;;;;;;4.40;0.90;;;26.80;77.30;;;;;;5083207;23;20013;-63
2022/02/28 12:56:10;;;;;;;8.07;1.05;;;26.80;77.40;;;;;;5086641;23;20252;-63
2022/02/28 12:58:32;;;;;;;2.40;0.90;;;26.80;77.40;;;;;;5085769;23;20013;-66
2022/02/28 13:01:06;;;;;;;1.98;0.73;;;26.70;77.40;;;;;;5086539;23;20345;-67
2022/02/28 13:03:33;;;;;;;;;;;26.70;77.30;;;;;;5086424;23;20044;-67
2022/02/28 13:05:57;;;;;;;1.75;0.75;;;26.70;77.30;;;;;;5089058;23;19912;-61
2022/02/28 13:08:20;;;;;;;1.55;0.70;;;26.70;77.40;;;;;;5087991;23;20013;-65
2022/02/28 13:10:42;;;;;;;1.33;0.65;;;26.70;77.40;;;;;;5085503;23;20016;-61
2022/02/28 13:13:05;;;;;;;1.65;0.85;;;26.70;77.50;;;;;;5087733;23;20020;-61
2022/02/28 13:15:31;;;;;;;4.30;1.10;;;26.70;77.60;;;;;;5087900;23;20990;-62
2022/02/28 13:17:54;;;;;;;4.93;1.08;;;26.60;77.50;;;;;;5084142;23;20017;-59
2022/02/28 13:20:17;;;;;;;2.88;0.73;;;26.60;77.50;;;;;;5091738;23;20013;-61
2022/02/28 13:22:39;;;;;;;13.57;1.23;;;26.60;77.50;;;;;;5086727;23;20116;-62
2022/02/28 13:25:02;;;;;;;6.70;1.13;;;26.60;77.00;;;;;;5088073;23;20432;-63
2022/02/28 13:27:25;;;;;;;4.57;1.30;;;26.60;77.50;;;;;;5093411;23;20019;-63
2022/02/28 13:29:47;;;;;;;6.45;0.98;;;26.60;77.40;;;;;;5090232;23;20017;-62
2022/02/28 13:32:18;;;;;;;2.70;1.00;;;26.60;77.40;;;;;;5088104;23;20020;-62
2022/02/28 13:34:42;;;;;;;4.85;0.70;;;26.50;77.30;;;;;;5094428;23;20025;-64
2022/02/28 13:37:16;;;;;;;3.63;0.82;;;26.50;77.20;;;;;;5088165;23;20970;-63
2022/02/28 13:39:39;;;;;;;;;;;26.50;77.70;;;;;;5094227;23;20021;-62
2022/02/28 13:42:10;;;;;;;4.00;0.90;;;26.50;77.30;;;;;;5077697;23;19919;-63
2022/02/28 13:44:37;;;;;;;1.00;0.45;;;26.50;77.40;;;;;;5063294;23;20093;-63
2022/02/28 13:47:01;;;;;;;2.55;0.70;;;26.50;77.30;;;;;;5088429;23;20283;-62
2022/02/28 13:49:24;;;;;;;1.67;0.52;;;26.40;77.30;;;;;;5090502;23;20248;-62
2022/02/28 13:51:47;;;;;;;1.10;0.73;;;26.40;77.40;;;;;;5091110;23;20017;-62
2022/02/28 13:54:13;;;;;;;1.37;0.73;;;26.40;77.50;;;;;;5087705;23;20013;-63
2022/02/28 13:56:35;;;;;;;2.70;0.60;;;26.40;77.60;;;;;;5089230;23;20009;-61
2022/02/28 13:59:26;;;;;;;5.40;1.15;;;26.40;77.60;;;;;;5090862;23;20402;-66
2022/02/28 14:01:51;;;;;;;4.35;0.80;;;26.40;78.10;;;;;;5085943;23;20067;-65
2022/02/28 14:04:13;;;;;;;1.77;0.70;;;26.40;78.30;;;;;;5089967;23;20206;-66
2022/02/28 14:06:36;;;;;;;1.95;0.80;;;26.30;78.30;;;;;;5093791;23;20061;-66
2022/02/28 14:08:58;;;;;;;1.52;0.57;;;26.30;78.30;;;;;;5087837;23;20089;-66
2022/02/28 14:11:30;;;;;;;4.10;1.00;;;26.30;78.30;;;;;;5084382;23;20016;-66
2022/02/28 14:13:54;;;;;;;0.80;0.50;;;26.30;78.30;;;;;;5088169;23;20013;-66
2022/02/28 14:16:31;;;;;;;2.78;0.70;;;26.30;78.30;;;;;;5087784;23;20377;-63
2022/02/28 14:19:01;;;;;;;2.33;0.60;;;26.30;78.40;;;;;;5087011;23;20067;-64
2022/02/28 14:21:27;;;;;;;4.40;0.73;;;26.30;78.50;;;;;;5093167;23;20408;-64
2022/02/28 14:23:49;;;;;;;0.70;0.57;;;26.30;78.60;;;;;;5087155;23;20396;-64
2022/02/28 14:26:15;;;;;;;1.50;0.50;;;26.30;78.60;;;;;;5079979;23;20025;-64
2022/02/28 14:28:42;;;;;;;3.17;0.98;;;26.30;78.50;;;;;;5093013;23;20040;-64
2022/02/28 14:31:07;;;;;;;4.78;0.80;;;26.30;78.60;;;;;;5077826;23;20546;-64
2022/02/28 14:33:31;;;;;;;1.52;0.70;;;26.20;78.50;;;;;;5093541;23;20092;-62
2022/02/28 14:35:53;;;;;;;1.27;0.70;;;26.20;78.60;;;;;;5089148;23;20017;-62
2022/02/28 14:38:16;;;;;;;1.30;0.55;;;26.20;78.50;;;;;;5089869;23;20017;-62
2022/02/28 14:40:38;;;;;;;1.83;0.55;;;26.20;78.40;;;;;;5095361;23;20119;-61
2022/02/28 14:43:02;;;;;;;2.65;0.70;;;26.30;78.50;;;;;;5087419;23;20790;-62
2022/02/28 14:45:25;;;;;;;1.58;0.60;;;26.20;78.30;;;;;;5089279;23;20059;-61